Terminal Aerodrome Forecast
Issued by NWS

Home | Current Version | Previous Version | Text Only | Print | Product List | Glossary On
Versions: 1 2 3 4 5 6 7 8 9 10 11 12 13 14 15
155
FTUS43 KICT 261720
TAFSLN
TAF
KSLN 261720Z 2618/2718 34016G24KT P6SM BKN030
      TEMPO 2618/2622 SCT030 BKN045
     FM262200 34015G22KT P6SM SCT045
     FM270000 34008KT P6SM SCT250
     FM270300 33004KT P6SM FEW250
     FM271400 12008KT P6SM BKN130=

USA.gov is the U.S. government's official web portal to all federal, state and local government web resources and services.